Time;durP1;ratioP1;P1;durP2;ratioP2;P2;SDS_P1;SDS_P2;PMS_P1;PMS_P2;Temp;Humidity;BMP_temperature;BMP_pressure;BME280_temperature;BME280_humidity;BME280_pressure;Samples;Min_cycle;Max_cycle;Signal;HPM_P1;HPM_P2
2022/07/27 00:01:19;;;;;;;;;;;;;;;24.02;49.51;101186.38;4917528;29;4448;-60
2022/07/27 00:03:45;;;;;;;;;;;;;;;24.02;49.63;101192.16;4914773;29;5665;-61
2022/07/27 00:06:12;;;;;;;;;;;;;;;24.03;49.54;101190.78;4915704;29;4417;-61
2022/07/27 00:08:38;;;;;;;;;;;;;;;24.00;49.55;101189.19;4919429;29;4265;-60
2022/07/27 00:11:05;;;;;;;;;;;;;;;24.01;49.84;101184.91;4914414;29;4324;-60
2022/07/27 00:13:31;;;;;;;;;;;;;;;24.02;50.02;101189.28;4913679;29;5331;-61
2022/07/27 00:15:57;;;;;;;;;;;;;;;24.01;50.02;101196.47;4913934;29;4296;-62
2022/07/27 00:18:24;;;;;;;;;;;;;;;24.00;50.08;101187.03;4912171;29;4219;-64
2022/07/27 00:20:50;;;;;;;;;;;;;;;24.01;49.90;101184.91;4915179;29;4251;-64
2022/07/27 00:23:16;;;;;;;;;;;;;;;24.00;49.98;101192.81;4916631;29;5545;-63
2022/07/27 00:25:43;;;;;;;;;;;;;;;24.00;50.22;101189.19;4917558;29;4347;-63
2022/07/27 00:28:09;;;;;;;;;;;;;;;24.00;50.25;101187.03;4914860;29;4244;-63
2022/07/27 00:30:36;;;;;;;;;;;;;;;24.01;49.91;101182.03;4914064;29;5261;-63
2022/07/27 00:33:04;;;;;;;;;;;;;;;24.00;50.29;101169.69;4908732;29;4269;-63
2022/07/27 00:35:30;;;;;;;;;;;;;;;24.00;50.60;101177.63;4916800;29;4190;-63
2022/07/27 00:37:57;;;;;;;;;;;;;;;23.99;50.60;101176.91;4915494;29;4296;-63
2022/07/27 00:40:24;;;;;;;;;;;;;;;24.00;50.53;101178.38;4919863;29;4192;-63
2022/07/27 00:42:51;;;;;;;;;;;;;;;23.99;50.54;101182.69;4915807;29;5372;-63
2022/07/27 00:45:17;;;;;;;;;;;;;;;23.99;50.58;101184.84;4915086;29;4261;-63
2022/07/27 00:47:44;;;;;;;;;;;;;;;24.00;50.34;101183.41;4907889;29;4268;-64
2022/07/27 00:50:10;;;;;;;;;;;;;;;23.98;50.19;101187.00;4911024;29;5422;-64
2022/07/27 00:52:36;;;;;;;;;;;;;;;23.98;50.09;101184.09;4916264;29;5147;-63
2022/07/27 00:55:03;;;;;;;;;;;;;;;23.98;50.23;101187.00;4917567;29;4236;-63
2022/07/27 00:57:29;;;;;;;;;;;;;;;23.97;50.24;101185.50;4916440;29;4274;-63
2022/07/27 00:59:56;;;;;;;;;;;;;;;23.97;50.11;101185.50;4915478;29;4234;-63
2022/07/27 01:02:22;;;;;;;;;;;;;;;23.97;50.12;101190.53;4917555;29;4212;-63
2022/07/27 01:04:49;;;;;;;;;;;;;;;23.97;49.87;101197.06;4914494;29;4253;-64
2022/07/27 01:07:19;;;;;;;;;;;;;;;23.95;50.00;101193.38;4917244;29;4288;-63
2022/07/27 01:09:57;;;;;;;;;;;;;;;23.95;49.80;101187.56;4915936;29;4283;-64
2022/07/27 01:12:25;;;;;;;;;;;;;;;23.96;49.63;101194.84;4903480;29;5415;-64
2022/07/27 01:14:51;;;;;;;;;;;;;;;23.95;49.79;101204.94;4914218;29;4335;-63
2022/07/27 01:17:18;;;;;;;;;;;;;;;23.95;49.60;101199.88;4910675;29;5417;-64
2022/07/27 01:19:44;;;;;;;;;;;;;;;23.95;49.32;101199.16;4908260;29;4520;-64
2022/07/27 01:22:11;;;;;;;;;;;;;;;23.92;49.51;101207.00;4911123;29;4580;-64
2022/07/27 01:24:37;;;;;;;;;;;;;;;23.91;49.35;101199.72;4915165;29;4100;-64
2022/07/27 01:27:03;;;;;;;;;;;;;;;23.96;49.03;101197.72;4916205;29;4237;-62
2022/07/27 01:29:31;;;;;;;;;;;;;;;23.94;48.99;101200.56;4906039;29;4098;-61
2022/07/27 01:31:59;;;;;;;;;;;;;;;23.93;48.81;101201.97;4911504;29;5313;-62
2022/07/27 01:34:26;;;;;;;;;;;;;;;23.91;48.35;101205.50;4917518;29;4232;-61
2022/07/27 01:36:52;;;;;;;;;;;;;;;23.91;47.89;101199.00;4916202;29;4236;-61
2022/07/27 01:39:18;;;;;;;;;;;;;;;23.88;46.93;101194.53;4914865;29;4245;-61
2022/07/27 01:41:45;;;;;;;;;;;;;;;23.86;46.46;101201.00;4912698;29;5014;-61
2022/07/27 01:44:11;;;;;;;;;;;;;;;23.85;45.75;101207.47;4915879;29;4234;-61
2022/07/27 01:46:38;;;;;;;;;;;;;;;23.86;45.60;101198.09;4917839;29;4418;-60
2022/07/27 01:49:04;;;;;;;;;;;;;;;23.86;45.60;101197.34;4914518;29;4316;-61
2022/07/27 01:51:31;;;;;;;;;;;;;;;23.86;45.82;101200.25;4919062;29;4386;-60
2022/07/27 01:53:57;;;;;;;;;;;;;;;23.86;45.98;101197.34;4918784;29;4543;-61
2022/07/27 01:56:23;;;;;;;;;;;;;;;23.87;46.25;101193.06;4917824;29;4406;-65
2022/07/27 01:58:50;;;;;;;;;;;;;;;23.87;46.24;101190.16;4917307;29;5132;-61
2022/07/27 02:01:16;;;;;;;;;;;;;;;23.86;46.47;101191.56;4913795;29;4205;-60
2022/07/27 02:03:42;;;;;;;;;;;;;;;23.86;46.17;101191.56;4914764;29;4141;-61
2022/07/27 02:06:09;;;;;;;;;;;;;;;23.85;46.48;101195.88;4910583;29;4218;-61
2022/07/27 02:08:35;;;;;;;;;;;;;;;23.83;46.36;101197.28;4913645;29;5287;-60
2022/07/27 02:13:47;;;;;;;;;;;;;;;23.82;46.20;101203.72;4912015;29;4204;-61
2022/07/27 02:16:13;;;;;;;;;;;;;;;23.81;46.29;101211.66;4910439;29;4537;-63
2022/07/27 02:18:42;;;;;;;;;;;;;;;23.81;46.05;101214.56;4912252;29;4622;-63
2022/07/27 02:21:09;;;;;;;;;;;;;;;23.81;45.85;101217.44;4914633;29;5319;-61
2022/07/27 02:23:36;;;;;;;;;;;;;;;23.80;45.82;101213.09;4914516;29;4303;-62
2022/07/27 02:26:02;;;;;;;;;;;;;;;23.79;45.58;101214.47;4915910;29;4207;-60
2022/07/27 02:28:29;;;;;;;;;;;;;;;23.80;45.77;101218.88;4915405;29;4177;-61
2022/07/27 02:30:55;;;;;;;;;;;;;;;23.79;45.51;101223.16;4910833;29;5365;-61
2022/07/27 02:33:21;;;;;;;;;;;;;;;23.79;45.50;101211.59;4914139;29;4538;-61
2022/07/27 02:35:49;;;;;;;;;;;;;;;23.79;45.26;101220.25;4915621;29;4268;-61
2022/07/27 02:38:15;;;;;;;;;;;;;;;23.78;45.26;101221.69;4914613;29;5284;-63
2022/07/27 02:40:41;;;;;;;;;;;;;;;23.78;45.21;101213.00;4916478;29;4399;-61
2022/07/27 02:43:08;;;;;;;;;;;;;;;23.78;45.42;101213.00;4912185;29;4210;-60
2022/07/27 02:45:34;;;;;;;;;;;;;;;23.78;45.53;101209.38;4916235;29;4997;-61
2022/07/27 02:48:01;;;;;;;;;;;;;;;23.77;45.42;101217.28;4913103;29;5270;-64
2022/07/27 02:50:27;;;;;;;;;;;;;;;23.77;45.47;101208.63;4913346;29;4423;-61
2022/07/27 02:52:53;;;;;;;;;;;;;;;23.78;45.55;101206.47;4909001;29;5317;-61
2022/07/27 02:55:20;;;;;;;;;;;;;;;23.77;45.38;101214.41;4916120;29;4271;-60
2022/07/27 02:57:47;;;;;;;;;;;;;;;23.76;45.37;101210.03;4918765;29;4201;-60
2022/07/27 03:00:14;;;;;;;;;;;;;;;23.76;45.52;101212.94;4916238;29;4532;-61
2022/07/27 03:02:41;;;;;;;;;;;;;;;23.76;45.66;101212.94;4912245;29;4984;-61
2022/07/27 03:05:07;;;;;;;;;;;;;;;23.75;45.31;101211.44;4914154;29;4231;-61
2022/07/27 03:07:34;;;;;;;;;;;;;;;23.74;45.51;101212.84;4917846;29;6521;-61
2022/07/27 03:10:00;;;;;;;;;;;;;;;23.75;45.48;101202.00;4913666;29;6472;-64
2022/07/27 03:12:26;;;;;;;;;;;;;;;23.75;45.55;101210.69;4913428;29;4696;-63
2022/07/27 03:14:53;;;;;;;;;;;;;;;23.75;45.47;101210.69;4919075;29;5303;-61
2022/07/27 03:17:19;;;;;;;;;;;;;;;23.75;45.55;101217.22;4915964;29;5496;-61
2022/07/27 03:19:48;;;;;;;;;;;;;;;23.73;45.54;101217.13;4916454;29;4647;-61
2022/07/27 03:22:15;;;;;;;;;;;;;;;23.73;45.49;101222.91;4915033;29;4143;-61
2022/07/27 03:24:41;;;;;;;;;;;;;;;23.72;45.50;101218.50;4916227;29;4217;-61
2022/07/27 03:27:07;;;;;;;;;;;;;;;23.72;45.22;101218.50;4921161;29;6537;-60
2022/07/27 03:29:34;;;;;;;;;;;;;;;23.72;45.52;101221.41;4921300;29;5388;-61
2022/07/27 03:32:00;;;;;;;;;;;;;;;23.72;45.52;101224.31;4914397;29;4684;-64
2022/07/27 03:34:27;;;;;;;;;;;;;;;23.72;45.50;101230.09;4915806;29;4304;-63
2022/07/27 03:36:53;;;;;;;;;;;;;;;23.71;45.48;101228.63;4915773;29;4133;-61
2022/07/27 03:39:19;;;;;;;;;;;;;;;23.71;45.47;101231.50;4914461;29;5268;-63
2022/07/27 03:41:46;;;;;;;;;;;;;;;23.71;45.40;101228.63;4919464;29;4307;-61
2022/07/27 03:44:12;;;;;;;;;;;;;;;23.70;45.38;101227.13;4919517;29;4173;-64
2022/07/27 03:46:38;;;;;;;;;;;;;;;23.70;45.58;101227.13;4920697;29;4331;-61
2022/07/27 03:49:05;;;;;;;;;;;;;;;23.70;45.57;101227.13;4916587;29;4205;-63
2022/07/27 03:51:40;;;;;;;;;;;;;;;23.72;45.64;101232.25;4899575;29;4394;-61
2022/07/27 03:54:06;;;;;;;;;;;;;;;23.71;45.54;101233.63;4920540;29;5306;-61
2022/07/27 03:56:33;;;;;;;;;;;;;;;23.71;45.56;101231.50;4914813;29;4207;-61
2022/07/27 03:58:59;;;;;;;;;;;;;;;23.70;45.94;101232.91;4917505;29;4233;-62
2022/07/27 04:01:25;;;;;;;;;;;;;;;23.71;45.95;101233.63;4913975;29;4567;-61
2022/07/27 04:03:52;;;;;;;;;;;;;;;23.69;46.11;101234.31;4915844;29;4122;-61
2022/07/27 04:06:18;;;;;;;;;;;;;;;23.70;46.10;101232.91;4908999;29;5287;-61
2022/07/27 04:08:45;;;;;;;;;;;;;;;23.70;46.12;101232.91;4915829;29;4183;-61
2022/07/27 04:11:13;;;;;;;;;;;;;;;23.70;46.32;101232.91;4912499;29;4266;-64
2022/07/27 04:13:42;;;;;;;;;;;;;;;23.70;46.33;101232.91;4901980;29;4187;-60
2022/07/27 04:16:11;;;;;;;;;;;;;;;23.69;46.39;101231.41;4914772;29;4281;-60
2022/07/27 04:18:37;;;;;;;;;;;;;;;23.70;46.37;101226.38;4917340;29;6392;-60
2022/07/27 04:21:05;;;;;;;;;;;;;;;23.71;46.44;101222.06;4918086;29;4187;-65
2022/07/27 04:23:31;;;;;;;;;;;;;;;23.57;45.69;101228.03;4914455;29;4270;-66
2022/07/27 04:26:03;;;;;;;;;;;;;;;23.45;44.19;101227.56;4906857;29;4279;-63
2022/07/27 04:28:31;;;;;;;;;;;;;;;23.46;44.65;101220.41;4918934;29;5472;-61
2022/07/27 04:30:57;;;;;;;;;;;;;;;23.54;44.60;101223.59;4914595;29;4135;-64
2022/07/27 04:33:24;;;;;;;;;;;;;;;23.58;45.00;101221.59;4909630;29;4136;-69
2022/07/27 04:35:50;;;;;;;;;;;;;;;23.61;45.04;101219.53;4912119;29;4240;-67
2022/07/27 04:38:16;;;;;;;;;;;;;;;23.62;45.48;101215.25;4911679;29;4382;-63
2022/07/27 04:40:43;;;;;;;;;;;;;;;23.59;46.08;101217.31;4916882;29;4055;-70
2022/07/27 04:43:09;;;;;;;;;;;;;;;23.55;45.02;101211.38;4913127;29;5375;-67
2022/07/27 04:45:37;;;;;;;;;;;;;;;23.37;44.20;101208.50;4911685;29;4292;-63
2022/07/27 04:48:07;;;;;;;;;;;;;;;23.31;44.17;101219.81;4914376;29;5271;-66
2022/07/27 04:50:42;;;;;;;;;;;;;;;23.29;44.68;101219.75;4917096;29;5597;-69
2022/07/27 04:53:09;;;;;;;;;;;;;;;22.87;44.58;101215.84;4918299;29;5877;-67
2022/07/27 04:55:36;;;;;;;;;;;;;;;22.09;44.85;101213.22;4918214;29;4237;-66
2022/07/27 04:58:02;;;;;;;;;;;;;;;21.11;47.00;101220.13;4920739;29;4550;-66
2022/07/27 05:00:28;;;;;;;;;;;;;;;20.98;47.08;101218.81;4921607;29;4158;-67
2022/07/27 05:02:55;;;;;;;;;;;;;;;20.89;47.19;101223.41;4920068;29;4977;-67
2022/07/27 05:05:21;;;;;;;;;;;;;;;21.66;46.07;101219.91;4915849;29;5265;-63
2022/07/27 05:07:47;;;;;;;;;;;;;;;22.15;45.66;101227.16;4920122;29;5741;-63
2022/07/27 05:10:14;;;;;;;;;;;;;;;22.49;45.68;101233.00;4916494;29;4287;-63
2022/07/27 05:12:45;;;;;;;;;;;;;;;22.59;45.45;101234.19;4902461;29;4651;-63
2022/07/27 05:15:12;;;;;;;;;;;;;;;22.65;45.15;101230.06;4915290;29;4778;-64
2022/07/27 05:17:38;;;;;;;;;;;;;;;22.72;45.12;101234.69;4913406;29;4012;-63
2022/07/27 05:20:05;;;;;;;;;;;;;;;22.74;45.10;101232.63;4901322;29;5536;-63
2022/07/27 05:22:31;;;;;;;;;;;;;;;22.76;45.05;101229.09;4913643;29;4647;-63
2022/07/27 05:25:04;;;;;;;;;;;;;;;22.80;45.21;101241.56;4919510;29;5456;-63
2022/07/27 05:27:31;;;;;;;;;;;;;;;22.80;44.89;101247.34;4918363;29;4018;-63
2022/07/27 05:29:57;;;;;;;;;;;;;;;22.81;45.29;101242.28;4900460;29;4065;-63
2022/07/27 05:32:24;;;;;;;;;;;;;;;22.82;45.34;101243.81;4915407;29;4572;-63
2022/07/27 05:34:50;;;;;;;;;;;;;;;22.86;45.26;101249.75;4915948;29;4635;-63
2022/07/27 05:37:17;;;;;;;;;;;;;;;22.88;45.18;101251.97;4911705;29;3976;-63
2022/07/27 05:39:43;;;;;;;;;;;;;;;22.87;45.30;101253.38;4899334;29;4219;-63
2022/07/27 05:42:10;;;;;;;;;;;;;;;22.85;45.24;101259.81;4892133;29;4107;-63
2022/07/27 05:44:36;;;;;;;;;;;;;;;22.85;45.53;101259.06;4902825;29;6585;-63
2022/07/27 05:47:02;;;;;;;;;;;;;;;22.88;45.52;101261.38;4907367;29;4275;-63
2022/07/27 05:49:31;;;;;;;;;;;;;;;22.86;45.69;101267.06;4901104;29;4624;-63
2022/07/27 05:51:58;;;;;;;;;;;;;;;22.88;45.76;101275.81;4905310;29;4205;-63
2022/07/27 05:54:24;;;;;;;;;;;;;;;22.92;45.76;101281.75;4906731;29;4684;-63
2022/07/27 05:56:51;;;;;;;;;;;;;;;22.91;45.77;101274.50;4907339;29;4306;-63
2022/07/27 05:59:17;;;;;;;;;;;;;;;22.90;45.68;101278.03;4909315;29;6155;-63
2022/07/27 06:01:43;;;;;;;;;;;;;;;22.85;45.58;101276.38;4910351;29;4621;-63
2022/07/27 06:04:10;;;;;;;;;;;;;;;22.86;45.67;101281.50;4916499;29;4234;-63
2022/07/27 06:09:25;;;;;;;;;;;;;;;22.88;45.50;101278.69;4917367;29;4933;-63
2022/07/27 06:11:51;;;;;;;;;;;;;;;22.90;45.73;101278.78;4918023;29;4276;-62
2022/07/27 06:14:18;;;;;;;;;;;;;;;22.95;45.74;101271.78;4918576;29;4559;-62
2022/07/27 06:16:44;;;;;;;;;;;;;;;22.92;45.77;101270.19;4920147;29;4606;-63
2022/07/27 06:19:11;;;;;;;;;;;;;;;22.88;45.74;101269.28;4917418;29;4519;-62
2022/07/27 06:21:38;;;;;;;;;;;;;;;22.89;46.23;101274.41;4914620;29;4273;-63
2022/07/27 06:24:04;;;;;;;;;;;;;;;22.89;45.96;101271.53;4916959;29;4411;-63
2022/07/27 06:26:31;;;;;;;;;;;;;;;22.90;46.05;101270.13;4919173;29;4247;-63
2022/07/27 06:28:59;;;;;;;;;;;;;;;22.89;46.09;101279.47;4915285;29;5270;-63
2022/07/27 06:31:26;;;;;;;;;;;;;;;22.89;45.79;101276.56;4918185;29;4789;-63
2022/07/27 06:34:00;;;;;;;;;;;;;;;22.86;46.03;101283.63;4914489;29;5939;-63
2022/07/27 06:36:27;;;;;;;;;;;;;;;22.87;46.02;101282.25;4918456;29;4358;-63
2022/07/27 06:38:53;;;;;;;;;;;;;;;22.87;45.84;101283.00;4917511;29;4213;-63
2022/07/27 06:41:20;;;;;;;;;;;;;;;22.87;45.42;101280.09;4917818;29;4058;-63
2022/07/27 06:43:46;;;;;;;;;;;;;;;22.83;45.51;101274.16;4917369;29;5762;-63
2022/07/27 06:46:13;;;;;;;;;;;;;;;22.84;45.34;101277.78;4918348;29;5667;-63
2022/07/27 06:48:39;;;;;;;;;;;;;;;22.84;45.52;101274.88;4920889;29;4626;-63
2022/07/27 06:51:06;;;;;;;;;;;;;;;22.83;45.44;101276.31;4921232;29;4637;-62
2022/07/27 06:53:32;;;;;;;;;;;;;;;22.80;45.59;101278.34;4921103;29;4334;-65
2022/07/27 06:56:07;;;;;;;;;;;;;;;22.78;45.71;101278.25;4920468;29;4610;-68
2022/07/27 06:58:33;;;;;;;;;;;;;;;22.81;45.68;101288.50;4919195;29;4386;-66
2022/07/27 07:01:01;;;;;;;;;;;;;;;22.89;45.44;101283.09;4920402;29;4679;-62
2022/07/27 07:03:27;;;;;;;;;;;;;;;22.86;45.21;101284.41;4914973;29;4438;-62
2022/07/27 07:05:54;;;;;;;;;;;;;;;22.90;45.36;101284.56;4920981;29;4060;-62
2022/07/27 07:08:21;;;;;;;;;;;;;;;22.93;45.42;101294.81;4922464;29;4423;-62
2022/07/27 07:10:48;;;;;;;;;;;;;;;22.94;45.46;101286.88;4921590;29;5497;-62
2022/07/27 07:13:14;;;;;;;;;;;;;;;22.96;45.60;101281.19;4919924;29;4549;-62
2022/07/27 07:15:41;;;;;;;;;;;;;;;22.97;46.09;101283.41;4920426;29;5715;-63
2022/07/27 07:18:07;;;;;;;;;;;;;;;22.98;46.12;101290.69;4922877;29;5623;-62
2022/07/27 07:20:34;;;;;;;;;;;;;;;23.00;46.19;101290.81;4921365;29;4266;-62
2022/07/27 07:23:00;;;;;;;;;;;;;;;23.02;46.45;101289.38;4922178;29;4375;-63
2022/07/27 07:25:27;;;;;;;;;;;;;;;23.03;46.36;101290.91;4921422;29;4669;-62
2022/07/27 07:27:53;;;;;;;;;;;;;;;23.02;46.27;101289.38;4923408;29;4430;-62
2022/07/27 07:30:20;;;;;;;;;;;;;;;23.04;46.37;101293.09;4919167;29;4336;-63
2022/07/27 07:32:46;;;;;;;;;;;;;;;23.04;46.74;101293.09;4921164;29;4097;-63
2022/07/27 07:35:12;;;;;;;;;;;;;;;23.05;46.31;101299.66;4921542;29;4676;-63
2022/07/27 07:37:39;;;;;;;;;;;;;;;23.05;46.67;101288.09;4922985;29;4698;-63
2022/07/27 07:40:05;;;;;;;;;;;;;;;23.06;46.67;101301.84;4921453;29;4578;-63
2022/07/27 07:42:53;;;;;;;;;;;;;;;23.06;46.38;101306.91;4920448;29;4125;-63
2022/07/27 07:45:20;;;;;;;;;;;;;;;23.07;46.28;101302.63;4920457;29;5285;-62
2022/07/27 07:47:46;;;;;;;;;;;;;;;23.06;46.74;101301.13;4920728;29;4272;-63
2022/07/27 07:50:12;;;;;;;;;;;;;;;23.05;46.85;101299.66;4921117;29;5170;-72
2022/07/27 07:52:39;;;;;;;;;;;;;;;22.95;44.75;101297.78;4920256;29;4832;-72
2022/07/27 07:55:06;;;;;;;;;;;;;;;22.84;44.15;101292.97;4922025;29;4696;-62
2022/07/27 07:57:32;;;;;;;;;;;;;;;22.78;43.82;101284.03;4918192;29;4432;-65
2022/07/27 07:59:58;;;;;;;;;;;;;;;22.79;44.36;101297.84;4919017;29;5358;-68
2022/07/27 08:02:25;;;;;;;;;;;;;;;22.90;44.25;101296.09;4919762;29;4440;-66
2022/07/27 08:04:54;;;;;;;;;;;;;;;22.97;44.41;101297.84;4918952;29;4702;-69
2022/07/27 08:07:20;;;;;;;;;;;;;;;23.02;44.51;101295.94;4915865;29;4070;-68
2022/07/27 08:09:47;;;;;;;;;;;;;;;23.04;44.66;101298.16;4916181;29;5689;-66
2022/07/27 08:12:13;;;;;;;;;;;;;;;23.06;44.81;101312.69;4915768;29;5301;-69
2022/07/27 08:14:39;;;;;;;;;;;;;;;23.07;45.29;101300.47;4919934;29;4102;-69
2022/07/27 08:17:06;;;;;;;;;;;;;;;23.08;45.36;101298.31;4920283;29;4780;-68
2022/07/27 08:19:32;;;;;;;;;;;;;;;23.06;46.43;101298.97;4919007;29;4508;-69
2022/07/27 08:22:05;;;;;;;;;;;;;;;23.05;45.86;101302.53;4921468;29;5138;-69
2022/07/27 08:24:31;;;;;;;;;;;;;;;23.06;46.01;101301.13;4920583;29;4123;-68
2022/07/27 08:26:58;;;;;;;;;;;;;;;23.07;46.05;101306.25;4912992;29;4537;-68
2022/07/27 08:29:24;;;;;;;;;;;;;;;23.09;46.20;101305.56;4918557;29;4220;-68
2022/07/27 08:32:02;;;;;;;;;;;;;;;23.09;46.46;101294.78;4919684;29;4486;-69
2022/07/27 08:34:31;;;;;;;;;;;;;;;23.11;46.72;101302.78;4918495;29;4269;-69
2022/07/27 08:36:57;;;;;;;;;;;;;;;23.10;46.79;101304.94;4915043;29;4489;-69
2022/07/27 08:39:24;;;;;;;;;;;;;;;23.11;46.87;101309.31;4918216;29;5486;-69
2022/07/27 08:42:10;;;;;;;;;;;;;;;23.11;47.03;101312.22;4919557;29;6203;-69
2022/07/27 08:44:39;;;;;;;;;;;;;;;23.11;47.19;101315.09;4916203;29;4265;-69
2022/07/27 08:47:09;;;;;;;;;;;;;;;23.12;47.26;101310.06;4915365;29;4686;-69
2022/07/27 08:49:39;;;;;;;;;;;;;;;23.12;47.47;101316.56;4920254;29;6097;-69
2022/07/27 08:52:09;;;;;;;;;;;;;;;23.12;47.62;101316.56;4916507;29;5325;-69
2022/07/27 08:54:39;;;;;;;;;;;;;;;23.12;47.43;101310.78;4920105;29;4247;-69
2022/07/27 08:57:06;;;;;;;;;;;;;;;23.07;47.16;101311.28;4919196;29;5871;-68
2022/07/27 08:59:32;;;;;;;;;;;;;;;23.08;46.53;101310.63;4921765;29;5324;-68
2022/07/27 09:01:59;;;;;;;;;;;;;;;23.04;45.96;101312.59;4917045;29;4478;-69
2022/07/27 09:04:28;;;;;;;;;;;;;;;23.04;45.47;101321.25;4921860;29;4198;-69
2022/07/27 09:06:55;;;;;;;;;;;;;;;23.00;45.32;101316.81;4902043;29;4514;-70
2022/07/27 09:09:21;;;;;;;;;;;;;;;23.05;44.91;101311.19;4918916;29;4198;-71
2022/07/27 09:12:04;;;;;;;;;;;;;;;23.07;45.13;101317.06;4919045;29;4382;-72
2022/07/27 09:14:30;;;;;;;;;;;;;;;23.09;45.38;101311.34;4918541;29;4151;-72
2022/07/27 09:16:57;;;;;;;;;;;;;;;23.06;45.25;101307.63;4919026;29;3999;-72
2022/07/27 09:19:51;;;;;;;;;;;;;;;23.08;44.93;101307.00;4921678;29;5637;-73
2022/07/27 09:22:19;;;;;;;;;;;;;;;23.06;44.69;101312.69;4920161;29;4219;-73
2022/07/27 09:25:06;;;;;;;;;;;;;;;23.03;44.75;101316.88;4904251;29;4584;-71
2022/07/27 09:27:32;;;;;;;;;;;;;;;23.02;43.67;101321.16;4912542;29;4478;-72
2022/07/27 09:30:00;;;;;;;;;;;;;;;23.03;43.82;101325.56;4915480;29;4181;-73
2022/07/27 09:32:27;;;;;;;;;;;;;;;23.03;43.74;101332.06;4920427;29;4187;-73
2022/07/27 09:34:53;;;;;;;;;;;;;;;23.00;43.98;101311.03;4921067;29;5306;-73
2022/07/27 09:37:23;;;;;;;;;;;;;;;23.01;44.12;101320.41;4919230;29;4690;-68
2022/07/27 09:39:51;;;;;;;;;;;;;;;23.00;44.10;101316.06;4918698;29;4269;-71
2022/07/27 09:42:19;;;;;;;;;;;;;;;22.98;43.95;101307.28;4915575;29;4686;-68
2022/07/27 09:45:24;;;;;;;;;;;;;;;22.96;44.03;101319.47;4916496;29;5026;-72
2022/07/27 09:48:05;;;;;;;;;;;;;;;23.00;43.79;101311.03;4917814;29;4206;-72
2022/07/27 09:50:31;;;;;;;;;;;;;;;23.00;43.82;101316.06;4916889;29;4175;-66
2022/07/27 09:53:13;;;;;;;;;;;;;;;22.99;43.17;101318.19;4919950;29;4651;-72
2022/07/27 09:56:16;;;;;;;;;;;;;;;22.98;42.96;101324.59;4919349;29;4236;-69
2022/07/27 09:58:43;;;;;;;;;;;;;;;22.95;43.22;101320.88;4921378;29;4479;-72
2022/07/27 10:01:11;;;;;;;;;;;;;;;22.96;42.98;101325.25;4920168;29;5333;-73
2022/07/27 10:03:38;;;;;;;;;;;;;;;22.99;43.30;101323.97;4919213;29;4469;-72
2022/07/27 10:06:05;;;;;;;;;;;;;;;23.00;43.59;101319.69;4920467;29;4253;-69
2022/07/27 10:08:31;;;;;;;;;;;;;;;23.00;43.39;101322.56;4919986;29;4165;-68
2022/07/27 10:10:58;;;;;;;;;;;;;;;22.99;43.36;101323.97;4921233;29;4182;-71
2022/07/27 10:13:28;;;;;;;;;;;;;;;23.02;43.21;101312.50;4919565;29;4411;-71
2022/07/27 10:15:55;;;;;;;;;;;;;;;23.04;43.32;101309.69;4920953;29;4308;-72
2022/07/27 10:18:26;;;;;;;;;;;;;;;23.06;43.34;101315.56;4919316;29;5176;-72
2022/07/27 10:20:53;;;;;;;;;;;;;;;23.06;43.62;101312.69;4920518;29;4896;-74
2022/07/27 10:23:23;;;;;;;;;;;;;;;23.07;43.67;101308.41;4919708;29;5499;-77
2022/07/27 10:25:53;;;;;;;;;;;;;;;23.08;43.70;101299.06;4920489;29;4608;-72
2022/07/27 10:28:19;;;;;;;;;;;;;;;23.09;43.45;101305.56;4903896;29;6130;-75
2022/07/27 10:30:46;;;;;;;;;;;;;;;23.09;43.78;101305.56;4920871;29;4546;-70
2022/07/27 10:33:40;;;;;;;;;;;;;;;23.10;44.02;101312.84;4919827;29;6103;-74
2022/07/27 10:36:12;;;;;;;;;;;;;;;23.10;44.69;101307.06;4919299;29;4647;-72
2022/07/27 10:38:46;;;;;;;;;;;;;;;23.06;44.91;101304.00;4919727;29;5542;-73
2022/07/27 10:41:21;;;;;;;;;;;;;;;23.10;44.82;101307.81;4916915;29;5335;-71
2022/07/27 10:43:50;;;;;;;;;;;;;;;23.09;44.64;101306.34;4918470;29;4677;-72
2022/07/27 10:46:19;;;;;;;;;;;;;;;23.12;45.07;101310.78;4914433;29;5417;-69
2022/07/27 10:48:46;;;;;;;;;;;;;;;23.12;44.59;101302.13;4916206;29;4323;-69
2022/07/27 10:51:15;;;;;;;;;;;;;;;23.12;44.64;101301.38;4914622;29;4417;-71
2022/07/27 10:53:42;;;;;;;;;;;;;;;23.10;45.00;101296.25;4916457;29;4281;-68
2022/07/27 10:56:44;;;;;;;;;;;;;;;23.13;45.31;101299.97;4915466;29;7736;-70
2022/07/27 10:59:10;;;;;;;;;;;;;;;23.14;44.79;101295.69;4912318;29;5331;-73
2022/07/27 11:01:45;;;;;;;;;;;;;;;23.15;44.91;101297.16;4913497;29;4664;-71
2022/07/27 11:04:11;;;;;;;;;;;;;;;23.15;45.53;101303.69;4900431;29;5375;-71
2022/07/27 11:06:38;;;;;;;;;;;;;;;23.15;45.59;101297.91;4915434;29;4593;-75
2022/07/27 11:09:37;;;;;;;;;;;;;;;23.14;45.78;101295.69;4918299;29;4418;-77
2022/07/27 11:12:24;;;;;;;;;;;;;;;23.15;45.49;101302.94;4911666;29;4780;-70
2022/07/27 11:14:51;;;;;;;;;;;;;;;23.17;46.10;101297.25;4898846;29;4077;-78
2022/07/27 11:17:21;;;;;;;;;;;;;;;23.12;46.68;101301.38;4912582;29;5623;-72
2022/07/27 11:20:08;;;;;;;;;;;;;;;23.19;47.16;101297.34;4912750;29;4489;-72
2022/07/27 11:22:35;;;;;;;;;;;;;;;23.17;47.05;101298.00;4916260;29;4749;-72
2022/07/27 11:25:22;;;;;;;;;;;;;;;23.17;46.74;101295.09;4914773;29;4428;-70
2022/07/27 11:27:48;;;;;;;;;;;;;;;23.14;45.85;101295.69;4915706;29;5256;-70
2022/07/27 11:30:21;;;;;;;;;;;;;;;23.15;44.58;101291.41;4915407;29;4838;-72
2022/07/27 11:32:48;;;;;;;;;;;;;;;23.16;44.39;101287.13;4914975;29;4214;-71
2022/07/27 11:35:14;;;;;;;;;;;;;;;23.19;44.30;101303.13;4919252;29;5947;-71
2022/07/27 11:37:56;;;;;;;;;;;;;;;23.19;44.32;101294.47;4920357;29;4349;-73
2022/07/27 11:40:22;;;;;;;;;;;;;;;23.17;44.59;101283.56;4916182;29;5304;-72
2022/07/27 11:43:09;;;;;;;;;;;;;;;23.17;44.73;101294.38;4923246;29;4221;-73
2022/07/27 11:45:40;;;;;;;;;;;;;;;23.17;44.45;101288.59;4923139;29;4305;-72
2022/07/27 11:48:09;;;;;;;;;;;;;;;23.17;44.47;101288.59;4922822;29;5242;-73
2022/07/27 11:50:37;;;;;;;;;;;;;;;23.19;44.07;101291.56;4921306;29;4574;-73
2022/07/27 11:53:05;;;;;;;;;;;;;;;23.20;44.10;101293.03;4901785;29;4263;-72
2022/07/27 11:55:31;;;;;;;;;;;;;;;23.22;43.65;101296.03;4913733;29;4458;-71
2022/07/27 11:58:02;;;;;;;;;;;;;;;23.22;43.91;101296.03;4904525;29;5371;-74
2022/07/27 12:00:40;;;;;;;;;;;;;;;23.20;43.75;101287.25;4918021;29;4697;-69
2022/07/27 12:03:07;;;;;;;;;;;;;;;23.21;43.78;101291.66;4918352;29;5343;-74
2022/07/27 12:05:33;;;;;;;;;;;;;;;23.20;42.78;101287.25;4918697;29;4277;-76
2022/07/27 12:08:00;;;;;;;;;;;;;;;23.21;42.88;101280.84;4916995;29;5303;-73
2022/07/27 12:10:26;;;;;;;;;;;;;;;23.23;41.94;101280.19;4920761;29;4619;-73
2022/07/27 12:12:52;;;;;;;;;;;;;;;23.24;42.58;101280.91;4921734;29;4317;-75
2022/07/27 12:15:19;;;;;;;;;;;;;;;23.25;42.29;101283.16;4920029;29;4208;-75
2022/07/27 12:18:05;;;;;;;;;;;;;;;23.23;43.01;101265.75;4920799;29;5546;-74
2022/07/27 12:20:32;;;;;;;;;;;;;;;23.25;42.92;101277.38;4902992;29;4172;-75
2022/07/27 12:23:02;;;;;;;;;;;;;;;23.24;42.71;101281.66;4919299;29;4179;-74
2022/07/27 12:25:28;;;;;;;;;;;;;;;23.26;42.40;101278.13;4919644;29;4204;-73
2022/07/27 12:27:55;;;;;;;;;;;;;;;23.24;42.89;101275.88;4921793;29;4292;-74
2022/07/27 12:30:41;;;;;;;;;;;;;;;23.25;42.50;101277.38;4919964;29;5335;-75
2022/07/27 12:33:23;;;;;;;;;;;;;;;23.26;42.71;101270.19;4919080;29;4422;-74
2022/07/27 12:35:49;;;;;;;;;;;;;;;23.27;42.95;101257.22;4920522;29;5308;-80
2022/07/27 12:38:15;;;;;;;;;;;;;;;23.27;42.61;101274.56;4922264;29;4704;-74
2022/07/27 12:40:52;;;;;;;;;;;;;;;23.29;42.62;101257.31;4920038;29;4228;-74
2022/07/27 12:43:25;;;;;;;;;;;;;;;23.29;42.80;101257.31;4919353;29;4376;-75
2022/07/27 12:45:52;;;;;;;;;;;;;;;23.30;42.46;101264.59;4915823;29;4303;-73
2022/07/27 12:48:20;;;;;;;;;;;;;;;23.31;43.03;101274.72;4920187;29;4217;-73
2022/07/27 12:50:59;;;;;;;;;;;;;;;23.32;42.82;101269.69;4918583;29;5185;-72
2022/07/27 12:53:25;;;;;;;;;;;;;;;23.34;43.24;101276.31;4919750;29;4687;-75
2022/07/27 12:55:52;;;;;;;;;;;;;;;23.34;43.40;101273.41;4918070;29;4283;-74
2022/07/27 12:58:19;;;;;;;;;;;;;;;23.35;43.04;101268.38;4919335;29;4293;-73
2022/07/27 13:00:46;;;;;;;;;;;;;;;23.34;42.59;101273.41;4919953;29;4141;-72